sensor_id;sensor_type;location;lat;lon;timestamp;pressure;altitude;pressure_sealevel;temperature;humidity
32320;BME280;19080;51.750;5.888;2022-12-01T00:01:19;102412.41;;;6.82;100.00
32320;BME280;19080;51.750;5.888;2022-12-01T00:03:46;102504.84;;;7.31;100.00
32320;BME280;19080;51.750;5.888;2022-12-01T00:06:18;102457.78;;;7.07;100.00
32320;BME280;19080;51.750;5.888;2022-12-01T00:08:46;102471.66;;;7.19;100.00
32320;BME280;19080;51.750;5.888;2022-12-01T00:11:34;102490.50;;;7.26;100.00
32320;BME280;19080;51.750;5.888;2022-12-01T00:14:01;102345.22;;;6.44;100.00
32320;BME280;19080;51.750;5.888;2022-12-01T00:16:28;102466.88;;;7.12;100.00
32320;BME280;19080;51.750;5.888;2022-12-01T00:18:55;102465.63;;;7.06;100.00
32320;BME280;19080;51.750;5.888;2022-12-01T00:21:24;102503.22;;;7.33;100.00
32320;BME280;19080;51.750;5.888;2022-12-01T00:23:53;102495.19;;;7.31;100.00
32320;BME280;19080;51.750;5.888;2022-12-01T00:26:21;102398.22;;;6.80;100.00
32320;BME280;19080;51.750;5.888;2022-12-01T00:28:53;102457.38;;;7.16;100.00
32320;BME280;19080;51.750;5.888;2022-12-01T00:31:20;102482.25;;;7.36;100.00
32320;BME280;19080;51.750;5.888;2022-12-01T00:33:48;102479.59;;;7.36;100.00
32320;BME280;19080;51.750;5.888;2022-12-01T00:36:15;102455.09;;;7.22;100.00
32320;BME280;19080;51.750;5.888;2022-12-01T00:38:41;102438.47;;;7.08;100.00
32320;BME280;19080;51.750;5.888;2022-12-01T00:41:08;102442.28;;;7.13;100.00
32320;BME280;19080;51.750;5.888;2022-12-01T00:43:35;102436.84;;;7.10;100.00
32320;BME280;19080;51.750;5.888;2022-12-01T00:46:02;102459.38;;;7.20;100.00
32320;BME280;19080;51.750;5.888;2022-12-01T00:48:31;102479.94;;;7.26;100.00
32320;BME280;19080;51.750;5.888;2022-12-01T00:50:58;102452.84;;;7.13;100.00
32320;BME280;19080;51.750;5.888;2022-12-01T00:53:25;102486.63;;;7.35;100.00
32320;BME280;19080;51.750;5.888;2022-12-01T00:55:52;102463.56;;;7.16;100.00
32320;BME280;19080;51.750;5.888;2022-12-01T00:58:22;102472.00;;;7.26;100.00
32320;BME280;19080;51.750;5.888;2022-12-01T01:00:56;102481.91;;;7.30;100.00
32320;BME280;19080;51.750;5.888;2022-12-01T01:03:24;102492.72;;;7.34;100.00
32320;BME280;19080;51.750;5.888;2022-12-01T01:05:51;102455.66;;;7.16;100.00
32320;BME280;19080;51.750;5.888;2022-12-01T01:08:18;102474.81;;;7.29;100.00
32320;BME280;19080;51.750;5.888;2022-12-01T01:10:46;102475.56;;;7.26;100.00
32320;BME280;19080;51.750;5.888;2022-12-01T01:13:13;102501.56;;;7.35;100.00
32320;BME280;19080;51.750;5.888;2022-12-01T01:15:40;102488.19;;;7.32;100.00
32320;BME280;19080;51.750;5.888;2022-12-01T01:18:09;102489.91;;;7.31;100.00
32320;BME280;19080;51.750;5.888;2022-12-01T01:20:36;102503.03;;;7.30;100.00
32320;BME280;19080;51.750;5.888;2022-12-01T01:23:03;102489.66;;;7.27;100.00
32320;BME280;19080;51.750;5.888;2022-12-01T01:25:31;102495.13;;;7.30;100.00
32320;BME280;19080;51.750;5.888;2022-12-01T01:27:58;102486.69;;;7.21;100.00
32320;BME280;19080;51.750;5.888;2022-12-01T01:30:24;102478.50;;;7.16;100.00
32320;BME280;19080;51.750;5.888;2022-12-01T01:32:51;102488.66;;;7.25;100.00
32320;BME280;19080;51.750;5.888;2022-12-01T01:35:18;102501.38;;;7.32;100.00
32320;BME280;19080;51.750;5.888;2022-12-01T01:37:44;102468.44;;;7.09;100.00
32320;BME280;19080;51.750;5.888;2022-12-01T01:40:11;102482.06;;;7.16;100.00
32320;BME280;19080;51.750;5.888;2022-12-01T01:42:37;102505.59;;;7.28;100.00
32320;BME280;19080;51.750;5.888;2022-12-01T01:45:27;102513.78;;;7.33;100.00
32320;BME280;19080;51.750;5.888;2022-12-01T01:47:56;102492.13;;;7.24;100.00
32320;BME280;19080;51.750;5.888;2022-12-01T01:50:25;102491.81;;;7.17;100.00
32320;BME280;19080;51.750;5.888;2022-12-01T01:53:00;102434.94;;;6.92;100.00
32320;BME280;19080;51.750;5.888;2022-12-01T01:55:29;102496.69;;;7.26;100.00
32320;BME280;19080;51.750;5.888;2022-12-01T01:57:58;102499.41;;;7.28;100.00
32320;BME280;19080;51.750;5.888;2022-12-01T02:00:25;102494.28;;;7.31;100.00
32320;BME280;19080;51.750;5.888;2022-12-01T02:02:52;102506.84;;;7.35;100.00
32320;BME280;19080;51.750;5.888;2022-12-01T02:05:23;102526.09;;;7.48;100.00
32320;BME280;19080;51.750;5.888;2022-12-01T02:07:52;102440.88;;;7.04;100.00
32320;BME280;19080;51.750;5.888;2022-12-01T02:10:23;102509.00;;;7.42;100.00
32320;BME280;19080;51.750;5.888;2022-12-01T02:15:45;102513.63;;;7.46;100.00
32320;BME280;19080;51.750;5.888;2022-12-01T02:18:19;102521.56;;;7.46;100.00
32320;BME280;19080;51.750;5.888;2022-12-01T02:21:23;102509.16;;;7.45;100.00
32320;BME280;19080;51.750;5.888;2022-12-01T02:24:18;102516.44;;;7.49;100.00
32320;BME280;19080;51.750;5.888;2022-12-01T02:26:59;102521.56;;;7.46;100.00
32320;BME280;19080;51.750;5.888;2022-12-01T02:29:40;102496.03;;;7.30;100.00
32320;BME280;19080;51.750;5.888;2022-12-01T02:32:27;102520.38;;;7.41;100.00
32320;BME280;19080;51.750;5.888;2022-12-01T02:35:15;102519.41;;;7.39;100.00
32320;BME280;19080;51.750;5.888;2022-12-01T02:40:23;102487.59;;;7.21;100.00
32320;BME280;19080;51.750;5.888;2022-12-01T02:43:30;102520.13;;;7.36;100.00
32320;BME280;19080;51.750;5.888;2022-12-01T02:46:07;102480.91;;;7.11;100.00
32320;BME280;19080;51.750;5.888;2022-12-01T02:48:38;102432.88;;;6.86;100.00
32320;BME280;19080;51.750;5.888;2022-12-01T02:51:10;102524.50;;;7.36;100.00
32320;BME280;19080;51.750;5.888;2022-12-01T02:53:38;102522.13;;;7.40;100.00
32320;BME280;19080;51.750;5.888;2022-12-01T02:56:08;102514.34;;;7.27;100.00
32320;BME280;19080;51.750;5.888;2022-12-01T02:58:35;102497.25;;;7.21;100.00
32320;BME280;19080;51.750;5.888;2022-12-01T03:03:53;102529.97;;;7.39;100.00
32320;BME280;19080;51.750;5.888;2022-12-01T03:09:36;102532.84;;;7.43;100.00
32320;BME280;19080;51.750;5.888;2022-12-01T03:12:13;102526.66;;;7.43;100.00
32320;BME280;19080;51.750;5.888;2022-12-01T03:14:53;102485.63;;;7.17;100.00
32320;BME280;19080;51.750;5.888;2022-12-01T03:17:28;102491.63;;;7.14;100.00
32320;BME280;19080;51.750;5.888;2022-12-01T03:20:09;102501.72;;;7.22;100.00
32320;BME280;19080;51.750;5.888;2022-12-01T03:22:45;102429.72;;;6.77;100.00
32320;BME280;19080;51.750;5.888;2022-12-01T03:25:14;102518.56;;;7.24;100.00
32320;BME280;19080;51.750;5.888;2022-12-01T03:27:43;102495.09;;;7.13;100.00
32320;BME280;19080;51.750;5.888;2022-12-01T03:30:36;102488.00;;;7.12;100.00
32320;BME280;19080;51.750;5.888;2022-12-01T03:33:08;102518.56;;;7.24;100.00
32320;BME280;19080;51.750;5.888;2022-12-01T03:36:00;102493.19;;;7.11;100.00
32320;BME280;19080;51.750;5.888;2022-12-01T03:38:29;102484.03;;;7.04;100.00
32320;BME280;19080;51.750;5.888;2022-12-01T03:41:00;102490.56;;;7.11;100.00
32320;BME280;19080;51.750;5.888;2022-12-01T03:43:32;102478.41;;;6.98;100.00
32320;BME280;19080;51.750;5.888;2022-12-01T03:46:20;102520.03;;;7.18;100.00
32320;BME280;19080;51.750;5.888;2022-12-01T03:48:48;102489.13;;;7.01;100.00
32320;BME280;19080;51.750;5.888;2022-12-01T03:51:26;102477.91;;;7.05;100.00
32320;BME280;19080;51.750;5.888;2022-12-01T03:54:04;102500.56;;;7.16;100.00
32320;BME280;19080;51.750;5.888;2022-12-01T03:56:43;102495.91;;;7.12;100.00
32320;BME280;19080;51.750;5.888;2022-12-01T03:59:12;102523.84;;;7.24;100.00
32320;BME280;19080;51.750;5.888;2022-12-01T04:01:40;102480.72;;;7.08;100.00
32320;BME280;19080;51.750;5.888;2022-12-01T04:04:11;102433.34;;;6.79;100.00
32320;BME280;19080;51.750;5.888;2022-12-01T04:06:42;102485.75;;;7.04;100.00
32320;BME280;19080;51.750;5.888;2022-12-01T04:09:10;102515.75;;;7.21;100.00
32320;BME280;19080;51.750;5.888;2022-12-01T04:11:36;102536.38;;;7.28;100.00
32320;BME280;19080;51.750;5.888;2022-12-01T04:14:41;102503.66;;;7.09;100.00
32320;BME280;19080;51.750;5.888;2022-12-01T04:17:08;102498.22;;;7.06;100.00
32320;BME280;19080;51.750;5.888;2022-12-01T04:19:36;102513.75;;;7.16;100.00
32320;BME280;19080;51.750;5.888;2022-12-01T04:22:02;102506.56;;;7.14;100.00
32320;BME280;19080;51.750;5.888;2022-12-01T04:24:29;102498.72;;;7.15;100.00
32320;BME280;19080;51.750;5.888;2022-12-01T04:26:56;102478.56;;;7.01;100.00
32320;BME280;19080;51.750;5.888;2022-12-01T04:29:22;102526.00;;;7.31;100.00
32320;BME280;19080;51.750;5.888;2022-12-01T04:31:50;102516.91;;;7.26;100.00
32320;BME280;19080;51.750;5.888;2022-12-01T04:34:17;102529.78;;;7.36;100.00
32320;BME280;19080;51.750;5.888;2022-12-01T04:36:43;102495.25;;;7.16;100.00
32320;BME280;19080;51.750;5.888;2022-12-01T04:39:10;102508.00;;;7.24;100.00
32320;BME280;19080;51.750;5.888;2022-12-01T04:41:36;102482.53;;;7.09;100.00
32320;BME280;19080;51.750;5.888;2022-12-01T04:44:03;102513.34;;;7.25;100.00
32320;BME280;19080;51.750;5.888;2022-12-01T04:46:30;102525.81;;;7.28;100.00
32320;BME280;19080;51.750;5.888;2022-12-01T04:48:56;102527.81;;;7.32;100.00
32320;BME280;19080;51.750;5.888;2022-12-01T04:51:23;102512.38;;;7.23;100.00
32320;BME280;19080;51.750;5.888;2022-12-01T04:53:50;102447.56;;;6.81;100.00
32320;BME280;19080;51.750;5.888;2022-12-01T04:56:17;102504.50;;;7.08;100.00
32320;BME280;19080;51.750;5.888;2022-12-01T04:58:44;102483.84;;;7.01;100.00
32320;BME280;19080;51.750;5.888;2022-12-01T05:01:12;102438.13;;;6.70;100.00
32320;BME280;19080;51.750;5.888;2022-12-01T05:03:42;102467.19;;;6.86;100.00
32320;BME280;19080;51.750;5.888;2022-12-01T05:06:15;102470.00;;;6.89;100.00
32320;BME280;19080;51.750;5.888;2022-12-01T05:08:43;102500.84;;;7.06;100.00
32320;BME280;19080;51.750;5.888;2022-12-01T05:11:10;102500.03;;;7.07;100.00
32320;BME280;19080;51.750;5.888;2022-12-01T05:13:39;102541.59;;;7.26;100.00
32320;BME280;19080;51.750;5.888;2022-12-01T05:16:10;102530.75;;;7.22;100.00
32320;BME280;19080;51.750;5.888;2022-12-01T05:18:37;102483.84;;;7.01;100.00
32320;BME280;19080;51.750;5.888;2022-12-01T05:21:07;102444.56;;;6.75;100.00
32320;BME280;19080;51.750;5.888;2022-12-01T05:23:35;102443.00;;;6.78;100.00
32320;BME280;19080;51.750;5.888;2022-12-01T05:26:04;102541.00;;;7.32;100.00
32320;BME280;19080;51.750;5.888;2022-12-01T05:28:32;102504.75;;;7.13;100.00
32320;BME280;19080;51.750;5.888;2022-12-01T05:30:58;102540.94;;;7.30;100.00
32320;BME280;19080;51.750;5.888;2022-12-01T05:33:26;102513.84;;;7.18;100.00
32320;BME280;19080;51.750;5.888;2022-12-01T05:35:53;102494.06;;;6.95;100.00
32320;BME280;19080;51.750;5.888;2022-12-01T05:38:20;102506.78;;;7.02;100.00
32320;BME280;19080;51.750;5.888;2022-12-01T05:40:51;102444.97;;;6.66;100.00
32320;BME280;19080;51.750;5.888;2022-12-01T05:43:20;102501.03;;;6.93;100.00
32320;BME280;19080;51.750;5.888;2022-12-01T05:45:54;102510.25;;;7.01;100.00
32320;BME280;19080;51.750;5.888;2022-12-01T05:48:21;102538.59;;;7.20;100.00
32320;BME280;19080;51.750;5.888;2022-12-01T05:50:48;102545.34;;;7.15;100.00
32320;BME280;19080;51.750;5.888;2022-12-01T05:53:14;102472.44;;;6.70;100.00
32320;BME280;19080;51.750;5.888;2022-12-01T05:55:42;102549.72;;;7.14;100.00
32320;BME280;19080;51.750;5.888;2022-12-01T05:58:09;102518.50;;;6.91;100.00
32320;BME280;19080;51.750;5.888;2022-12-01T06:00:37;102459.44;;;6.58;100.00
32320;BME280;19080;51.750;5.888;2022-12-01T06:03:11;102541.13;;;7.02;100.00
32320;BME280;19080;51.750;5.888;2022-12-01T06:05:38;102549.22;;;7.05;100.00
32320;BME280;19080;51.750;5.888;2022-12-01T06:08:05;102546.41;;;7.02;100.00
32320;BME280;19080;51.750;5.888;2022-12-01T06:10:31;102557.03;;;7.04;100.00
32320;BME280;19080;51.750;5.888;2022-12-01T06:12:58;102530.53;;;6.86;100.00
32320;BME280;19080;51.750;5.888;2022-12-01T06:15:25;102527.00;;;6.85;100.00
32320;BME280;19080;51.750;5.888;2022-12-01T06:17:52;102532.91;;;6.81;100.00
32320;BME280;19080;51.750;5.888;2022-12-01T06:20:18;102493.47;;;6.53;100.00
32320;BME280;19080;51.750;5.888;2022-12-01T06:22:45;102553.66;;;6.90;100.00
32320;BME280;19080;51.750;5.888;2022-12-01T06:25:12;102539.84;;;6.79;100.00
32320;BME280;19080;51.750;5.888;2022-12-01T06:27:39;102517.75;;;6.63;100.00
32320;BME280;19080;51.750;5.888;2022-12-01T06:30:06;102553.69;;;6.75;100.00
32320;BME280;19080;51.750;5.888;2022-12-01T06:32:33;102529.59;;;6.55;100.00
32320;BME280;19080;51.750;5.888;2022-12-01T06:35:00;102531.03;;;6.49;100.00
32320;BME280;19080;51.750;5.888;2022-12-01T06:37:27;102556.16;;;6.58;100.00
32320;BME280;19080;51.750;5.888;2022-12-01T06:39:53;102429.09;;;5.76;100.00
32320;BME280;19080;51.750;5.888;2022-12-01T06:42:20;102548.78;;;6.37;100.00
32320;BME280;19080;51.750;5.888;2022-12-01T06:44:47;102523.69;;;6.14;100.00
32320;BME280;19080;51.750;5.888;2022-12-01T06:47:13;102523.31;;;6.08;100.00
32320;BME280;19080;51.750;5.888;2022-12-01T06:49:41;102515.94;;;6.03;100.00
32320;BME280;19080;51.750;5.888;2022-12-01T06:52:08;102530.75;;;6.01;100.00
32320;BME280;19080;51.750;5.888;2022-12-01T06:54:36;102570.13;;;6.12;100.00
32320;BME280;19080;51.750;5.888;2022-12-01T06:57:03;102548.41;;;6.02;100.00
32320;BME280;19080;51.750;5.888;2022-12-01T06:59:30;102545.09;;;5.91;100.00
32320;BME280;19080;51.750;5.888;2022-12-01T07:01:57;102547.44;;;5.86;100.00
32320;BME280;19080;51.750;5.888;2022-12-01T07:04:23;102562.22;;;5.98;100.00
32320;BME280;19080;51.750;5.888;2022-12-01T07:06:50;102582.00;;;5.91;100.00
32320;BME280;19080;51.750;5.888;2022-12-01T07:09:17;102562.38;;;5.73;100.00
32320;BME280;19080;51.750;5.888;2022-12-01T07:11:44;102573.72;;;5.72;100.00
32320;BME280;19080;51.750;5.888;2022-12-01T07:14:22;102551.69;;;5.56;100.00
32320;BME280;19080;51.750;5.888;2022-12-01T07:16:49;102576.19;;;5.69;100.00
32320;BME280;19080;51.750;5.888;2022-12-01T07:19:16;102583.56;;;5.74;100.00
32320;BME280;19080;51.750;5.888;2022-12-01T07:21:43;102564.63;;;5.67;100.00
32320;BME280;19080;51.750;5.888;2022-12-01T07:24:11;102556.53;;;5.64;100.00
32320;BME280;19080;51.750;5.888;2022-12-01T07:26:38;102554.63;;;5.61;100.00
32320;BME280;19080;51.750;5.888;2022-12-01T07:29:07;102545.13;;;5.50;100.00
32320;BME280;19080;51.750;5.888;2022-12-01T07:31:35;102555.72;;;5.65;100.00
32320;BME280;19080;51.750;5.888;2022-12-01T07:34:02;102586.84;;;5.85;100.00
32320;BME280;19080;51.750;5.888;2022-12-01T07:36:30;102572.19;;;5.75;100.00
32320;BME280;19080;51.750;5.888;2022-12-01T07:38:57;102586.94;;;5.86;100.00
32320;BME280;19080;51.750;5.888;2022-12-01T07:41:24;102594.41;;;6.07;100.00
32320;BME280;19080;51.750;5.888;2022-12-01T07:43:50;102496.75;;;5.63;100.00
32320;BME280;19080;51.750;5.888;2022-12-01T07:46:20;102555.50;;;6.03;100.00
32320;BME280;19080;51.750;5.888;2022-12-01T07:48:50;102601.72;;;6.40;100.00
32320;BME280;19080;51.750;5.888;2022-12-01T07:51:17;102585.53;;;6.49;100.00
32320;BME280;19080;51.750;5.888;2022-12-01T07:53:45;102444.28;;;5.80;100.00
32320;BME280;19080;51.750;5.888;2022-12-01T07:56:12;102560.44;;;6.56;100.00
32320;BME280;19080;51.750;5.888;2022-12-01T07:58:39;102569.41;;;6.74;100.00
32320;BME280;19080;51.750;5.888;2022-12-01T08:01:18;102573.78;;;6.88;100.00
32320;BME280;19080;51.750;5.888;2022-12-01T08:03:47;102605.19;;;7.14;100.00
32320;BME280;19080;51.750;5.888;2022-12-01T08:06:15;102557.59;;;6.98;100.00
32320;BME280;19080;51.750;5.888;2022-12-01T08:08:43;102506.72;;;6.70;100.00
32320;BME280;19080;51.750;5.888;2022-12-01T08:11:22;102572.16;;;7.06;100.00
32320;BME280;19080;51.750;5.888;2022-12-01T08:13:50;102497.09;;;6.70;100.00
32320;BME280;19080;51.750;5.888;2022-12-01T08:16:20;102576.97;;;7.13;100.00
32320;BME280;19080;51.750;5.888;2022-12-01T08:18:48;102584.88;;;7.13;100.00
32320;BME280;19080;51.750;5.888;2022-12-01T08:21:17;102529.47;;;6.68;100.00
32320;BME280;19080;51.750;5.888;2022-12-01T08:23:45;102610.94;;;7.07;100.00
32320;BME280;19080;51.750;5.888;2022-12-01T08:26:17;102625.41;;;7.14;100.00
32320;BME280;19080;51.750;5.888;2022-12-01T08:28:45;102608.72;;;7.15;100.00
32320;BME280;19080;51.750;5.888;2022-12-01T08:31:24;102606.91;;;7.14;100.00
32320;BME280;19080;51.750;5.888;2022-12-01T08:33:51;102602.53;;;7.14;100.00
32320;BME280;19080;51.750;5.888;2022-12-01T08:36:19;102457.94;;;6.32;100.00
32320;BME280;19080;51.750;5.888;2022-12-01T08:38:50;102608.38;;;7.09;100.00
32320;BME280;19080;51.750;5.888;2022-12-01T08:41:18;102625.31;;;7.12;100.00
32320;BME280;19080;51.750;5.888;2022-12-01T08:43:45;102623.97;;;7.04;100.00
32320;BME280;19080;51.750;5.888;2022-12-01T08:46:25;102607.53;;;6.79;100.00
32320;BME280;19080;51.750;5.888;2022-12-01T08:48:52;102627.84;;;6.80;100.00
32320;BME280;19080;51.750;5.888;2022-12-01T08:51:20;102594.25;;;6.48;100.00
32320;BME280;19080;51.750;5.888;2022-12-01T08:53:48;102579.69;;;6.25;100.00
32320;BME280;19080;51.750;5.888;2022-12-01T08:56:21;102543.13;;;6.02;100.00
32320;BME280;19080;51.750;5.888;2022-12-01T08:58:49;102620.75;;;6.49;100.00
32320;BME280;19080;51.750;5.888;2022-12-01T09:01:18;102613.19;;;6.41;100.00
32320;BME280;19080;51.750;5.888;2022-12-01T09:03:46;102463.81;;;5.69;100.00
32320;BME280;19080;51.750;5.888;2022-12-01T09:06:15;102599.91;;;6.69;100.00
32320;BME280;19080;51.750;5.888;2022-12-01T09:08:42;102462.03;;;5.98;100.00
32320;BME280;19080;51.750;5.888;2022-12-01T09:11:11;102621.38;;;6.75;100.00
32320;BME280;19080;51.750;5.888;2022-12-01T09:13:39;102625.84;;;6.76;100.00
32320;BME280;19080;51.750;5.888;2022-12-01T09:16:11;102530.78;;;6.15;100.00
32320;BME280;19080;51.750;5.888;2022-12-01T09:18:38;102622.94;;;6.57;100.00
32320;BME280;19080;51.750;5.888;2022-12-01T09:21:26;102618.09;;;6.49;100.00
32320;BME280;19080;51.750;5.888;2022-12-01T09:23:55;102592.25;;;6.29;100.00
32320;BME280;19080;51.750;5.888;2022-12-01T09:26:25;102604.34;;;6.40;100.00
32320;BME280;19080;51.750;5.888;2022-12-01T09:28:53;102618.91;;;6.48;100.00
32320;BME280;19080;51.750;5.888;2022-12-01T09:31:21;102529.69;;;6.12;100.00
32320;BME280;19080;51.750;5.888;2022-12-01T09:34:00;102634.84;;;6.79;100.00
32320;BME280;19080;51.750;5.888;2022-12-01T09:36:28;102603.09;;;6.78;100.00
32320;BME280;19080;51.750;5.888;2022-12-01T09:38:55;102607.03;;;7.01;100.00
32320;BME280;19080;51.750;5.888;2022-12-01T09:41:29;102629.84;;;7.30;100.00
32320;BME280;19080;51.750;5.888;2022-12-01T09:44:04;102609.56;;;7.45;100.00
32320;BME280;19080;51.750;5.888;2022-12-01T09:46:44;102591.66;;;7.56;100.00
32320;BME280;19080;51.750;5.888;2022-12-01T09:49:17;102584.66;;;7.56;100.00
32320;BME280;19080;51.750;5.888;2022-12-01T09:51:44;102615.88;;;7.79;100.00
32320;BME280;19080;51.750;5.888;2022-12-01T09:54:12;102597.56;;;7.82;100.00
32320;BME280;19080;51.750;5.888;2022-12-01T09:56:48;102619.38;;;8.11;100.00
32320;BME280;19080;51.750;5.888;2022-12-01T09:59:19;102600.09;;;8.13;100.00
32320;BME280;19080;51.750;5.888;2022-12-01T10:01:52;102543.03;;;7.84;100.00
32320;BME280;19080;51.750;5.888;2022-12-01T10:04:33;102567.47;;;8.13;100.00
32320;BME280;19080;51.750;5.888;2022-12-01T10:07:30;102610.59;;;8.44;100.00
32320;BME280;19080;51.750;5.888;2022-12-01T10:12:31;102463.13;;;7.90;100.00
32320;BME280;19080;51.750;5.888;2022-12-01T10:18:15;102609.22;;;8.87;100.00
32320;BME280;19080;51.750;5.888;2022-12-01T10:21:01;102610.56;;;8.78;100.00
32320;BME280;19080;51.750;5.888;2022-12-01T10:23:51;102606.56;;;8.87;100.00
32320;BME280;19080;51.750;5.888;2022-12-01T10:26:31;102590.66;;;8.87;100.00
32320;BME280;19080;51.750;5.888;2022-12-01T10:29:09;102605.44;;;8.99;100.00
32320;BME280;19080;51.750;5.888;2022-12-01T10:31:46;102598.63;;;9.04;100.00
32320;BME280;19080;51.750;5.888;2022-12-01T10:34:27;102583.94;;;8.93;100.00
32320;BME280;19080;51.750;5.888;2022-12-01T10:36:55;102604.00;;;9.06;100.00
32320;BME280;19080;51.750;5.888;2022-12-01T10:42:04;102588.19;;;9.07;100.00
32320;BME280;19080;51.750;5.888;2022-12-01T10:44:33;102582.66;;;9.21;100.00
32320;BME280;19080;51.750;5.888;2022-12-01T10:47:01;102562.13;;;9.17;100.00
32320;BME280;19080;51.750;5.888;2022-12-01T10:49:39;102596.25;;;9.28;100.00
32320;BME280;19080;51.750;5.888;2022-12-01T10:52:06;102586.50;;;9.27;100.00
32320;BME280;19080;51.750;5.888;2022-12-01T10:54:51;102572.13;;;9.22;100.00
32320;BME280;19080;51.750;5.888;2022-12-01T10:57:18;102589.22;;;9.29;100.00
32320;BME280;19080;51.750;5.888;2022-12-01T11:02:25;102579.00;;;9.19;100.00
32320;BME280;19080;51.750;5.888;2022-12-01T11:04:56;102583.56;;;9.21;100.00
32320;BME280;19080;51.750;5.888;2022-12-01T11:07:27;102583.84;;;9.27;100.00
32320;BME280;19080;51.750;5.888;2022-12-01T11:10:04;102547.00;;;9.14;100.00
32320;BME280;19080;51.750;5.888;2022-12-01T11:12:33;102582.56;;;9.37;100.00
32320;BME280;19080;51.750;5.888;2022-12-01T11:15:00;102577.84;;;9.49;100.00
32320;BME280;19080;51.750;5.888;2022-12-01T11:20:34;102574.19;;;9.47;100.00
32320;BME280;19080;51.750;5.888;2022-12-01T11:25:35;102570.44;;;9.24;100.00
32320;BME280;19080;51.750;5.888;2022-12-01T11:28:03;102577.94;;;9.33;100.00
32320;BME280;19080;51.750;5.888;2022-12-01T11:30:31;102462.44;;;8.81;100.00
32320;BME280;19080;51.750;5.888;2022-12-01T11:33:01;102574.50;;;9.53;100.00
32320;BME280;19080;51.750;5.888;2022-12-01T11:35:32;102488.38;;;9.26;100.00
32320;BME280;19080;51.750;5.888;2022-12-01T11:38:02;102562.94;;;9.70;100.00
32320;BME280;19080;51.750;5.888;2022-12-01T11:40:59;102554.56;;;9.81;100.00
32320;BME280;19080;51.750;5.888;2022-12-01T11:43:33;102578.56;;;10.03;100.00
32320;BME280;19080;51.750;5.888;2022-12-01T11:46:04;102542.91;;;9.96;100.00
32320;BME280;19080;51.750;5.888;2022-12-01T11:48:33;102567.19;;;10.05;100.00
32320;BME280;19080;51.750;5.888;2022-12-01T11:51:26;102478.78;;;9.47;100.00
32320;BME280;19080;51.750;5.888;2022-12-01T11:54:32;102566.34;;;9.87;100.00
32320;BME280;19080;51.750;5.888;2022-12-01T11:56:59;102552.25;;;9.88;100.00
32320;BME280;19080;51.750;5.888;2022-12-01T11:59:45;102544.78;;;9.79;100.00
32320;BME280;19080;51.750;5.888;2022-12-01T12:02:20;102559.31;;;9.88;100.00
32320;BME280;19080;51.750;5.888;2022-12-01T12:10:40;102552.03;;;9.84;100.00
32320;BME280;19080;51.750;5.888;2022-12-01T12:13:38;102547.72;;;9.86;100.00
32320;BME280;19080;51.750;5.888;2022-12-01T12:16:26;102459.16;;;9.63;100.00
32320;BME280;19080;51.750;5.888;2022-12-01T12:22:39;102542.16;;;10.39;100.00
32320;BME280;19080;51.750;5.888;2022-12-01T12:27:47;102536.88;;;10.40;100.00
32320;BME280;19080;51.750;5.888;2022-12-01T12:30:20;102537.28;;;10.50;100.00
32320;BME280;19080;51.750;5.888;2022-12-01T12:33:14;102537.38;;;10.30;100.00
32320;BME280;19080;51.750;5.888;2022-12-01T12:36:34;102483.09;;;9.84;100.00
32320;BME280;19080;51.750;5.888;2022-12-01T12:39:31;102510.13;;;10.15;100.00
32320;BME280;19080;51.750;5.888;2022-12-01T12:42:05;102543.59;;;10.31;100.00
32320;BME280;19080;51.750;5.888;2022-12-01T12:44:47;102540.28;;;10.17;100.00
32320;BME280;19080;51.750;5.888;2022-12-01T12:47:40;102529.53;;;10.14;100.00
32320;BME280;19080;51.750;5.888;2022-12-01T12:50:38;102532.91;;;10.10;100.00
32320;BME280;19080;51.750;5.888;2022-12-01T12:53:20;102519.09;;;9.98;100.00
32320;BME280;19080;51.750;5.888;2022-12-01T12:55:50;102507.50;;;9.96;100.00
32320;BME280;19080;51.750;5.888;2022-12-01T12:58:32;102518.09;;;10.15;100.00
32320;BME280;19080;51.750;5.888;2022-12-01T13:01:09;102427.72;;;9.51;100.00
32320;BME280;19080;51.750;5.888;2022-12-01T13:03:48;102506.41;;;9.91;100.00
32320;BME280;19080;51.750;5.888;2022-12-01T13:08:54;102464.41;;;9.42;100.00
32320;BME280;19080;51.750;5.888;2022-12-01T13:11:33;102525.38;;;9.61;100.00
32320;BME280;19080;51.750;5.888;2022-12-01T13:15:12;102519.66;;;9.52;100.00
32320;BME280;19080;51.750;5.888;2022-12-01T13:17:18;102515.75;;;9.44;100.00
32320;BME280;19080;51.750;5.888;2022-12-01T13:19:46;102478.06;;;9.32;100.00
32320;BME280;19080;51.750;5.888;2022-12-01T13:22:15;102424.56;;;9.02;100.00
32320;BME280;19080;51.750;5.888;2022-12-01T13:24:43;102508.16;;;9.52;100.00
32320;BME280;19080;51.750;5.888;2022-12-01T13:29:38;102485.69;;;9.43;100.00
32320;BME280;19080;51.750;5.888;2022-12-01T13:32:25;102423.94;;;9.07;100.00
32320;BME280;19080;51.750;5.888;2022-12-01T13:34:52;102441.78;;;9.11;100.00
32320;BME280;19080;51.750;5.888;2022-12-01T13:37:33;102499.28;;;9.32;100.00
32320;BME280;19080;51.750;5.888;2022-12-01T13:40:15;102410.25;;;8.79;100.00
32320;BME280;19080;51.750;5.888;2022-12-01T13:42:58;102491.28;;;9.12;100.00
32320;BME280;19080;51.750;5.888;2022-12-01T13:45:37;102404.50;;;8.70;100.00
32320;BME280;19080;51.750;5.888;2022-12-01T13:48:23;102446.69;;;8.85;100.00
32320;BME280;19080;51.750;5.888;2022-12-01T13:51:00;102445.97;;;8.69;100.00
32320;BME280;19080;51.750;5.888;2022-12-01T13:53:35;102500.84;;;8.91;100.00
32320;BME280;19080;51.750;5.888;2022-12-01T14:06:44;102380.97;;;8.21;100.00
32320;BME280;19080;51.750;5.888;2022-12-01T14:11:54;102470.34;;;8.62;100.00
32320;BME280;19080;51.750;5.888;2022-12-01T14:14:24;102491.59;;;8.64;100.00